createdAt,value
2019-05-20T00:00:40.019Z,11.50
2019-05-20T00:05:35.349Z,12.10
2019-05-20T00:10:36.019Z,14.93
2019-05-20T00:15:30.857Z,21.83
2019-05-20T00:20:25.869Z,21.90
2019-05-20T00:25:20.758Z,19.03
2019-05-20T00:30:18.873Z,16.43
2019-05-20T00:35:19.153Z,21.60
2019-05-20T00:40:14.504Z,23.57
2019-05-20T00:45:09.750Z,15.27
2019-05-20T00:50:05.062Z,15.17
2019-05-20T00:55:03.625Z,13.90
2019-05-20T00:59:58.689Z,13.73
2019-05-20T01:05:02.457Z,14.00
2019-05-20T01:10:01.095Z,13.80
2019-05-20T01:14:57.002Z,14.47
2019-05-20T01:19:52.518Z,14.37
2019-05-20T01:24:47.381Z,14.27
2019-05-20T01:29:44.668Z,12.27
2019-05-20T01:34:41.394Z,11.03
2019-05-20T01:39:36.264Z,12.17
2019-05-20T01:44:33.223Z,11.70
2019-05-20T01:49:28.598Z,13.33
2019-05-20T01:54:24.574Z,12.33
2019-05-20T01:59:19.554Z,13.63
2019-05-20T02:04:15.523Z,16.70
2019-05-20T02:09:10.485Z,13.33
2019-05-20T02:14:09.074Z,13.37
2019-05-20T02:19:04.419Z,13.27
2019-05-20T02:23:59.502Z,12.57
2019-05-20T02:29:00.475Z,12.20
2019-05-20T02:33:55.509Z,12.30
2019-05-20T02:38:50.570Z,12.43
2019-05-20T02:43:45.621Z,11.97
2019-05-20T02:48:40.614Z,12.10
2019-05-20T02:53:35.574Z,11.53
2019-05-20T02:58:30.604Z,12.00
2019-05-20T03:03:29.568Z,11.10
2019-05-20T03:08:24.483Z,13.03
2019-05-20T03:13:19.396Z,10.07
2019-05-20T03:18:14.614Z,9.93
2019-05-20T03:23:11.074Z,10.90
2019-05-20T03:28:05.932Z,9.83
2019-05-20T03:33:00.784Z,10.40
2019-05-20T03:37:55.731Z,9.83
2019-05-20T03:42:52.874Z,10.73
2019-05-20T03:47:47.839Z,9.70
2019-05-20T03:52:42.764Z,10.67
2019-05-20T03:57:37.736Z,9.80
2019-05-20T04:02:32.622Z,10.03
2019-05-20T04:07:27.570Z,10.80
2019-05-20T04:12:22.798Z,11.17
2019-05-20T04:17:17.747Z,10.37
2019-05-20T04:22:12.711Z,9.83
2019-05-20T04:27:07.858Z,11.07
2019-05-20T04:32:02.721Z,14.53
2019-05-20T04:36:57.732Z,13.60
2019-05-20T04:41:59.155Z,14.80
2019-05-20T04:46:57.415Z,18.57
2019-05-20T04:51:50.884Z,15.13
2019-05-20T04:56:45.799Z,16.40
2019-05-20T05:01:40.734Z,16.07
2019-05-20T05:06:36.035Z,15.40
2019-05-20T05:11:31.042Z,17.40
2019-05-20T05:16:25.975Z,15.50
2019-05-20T05:21:20.894Z,26.03
2019-05-20T05:26:16.055Z,16.17
2019-05-20T05:31:11.821Z,16.57
2019-05-20T05:36:06.769Z,14.27
2019-05-20T05:41:03.379Z,16.10
2019-05-20T05:45:58.320Z,15.40
2019-05-20T05:50:53.283Z,24.20
2019-05-20T05:55:48.239Z,19.37
2019-05-20T06:00:43.314Z,14.60
2019-05-20T06:05:38.305Z,15.60
2019-05-20T06:10:35.717Z,17.70
2019-05-20T06:15:31.222Z,16.07
2019-05-20T06:20:26.307Z,20.87
2019-05-20T06:25:21.957Z,18.03
2019-05-20T06:30:17.626Z,20.80
2019-05-20T06:35:13.024Z,19.07
2019-05-20T06:40:13.960Z,16.93
2019-05-20T06:45:09.287Z,18.10
2019-05-20T06:50:05.461Z,15.87
2019-05-20T06:55:00.539Z,15.97
2019-05-20T06:59:57.770Z,13.93
2019-05-20T07:04:52.787Z,12.67
2019-05-20T07:09:47.834Z,13.77
2019-05-20T07:14:42.931Z,13.20
2019-05-20T07:19:37.884Z,13.77
2019-05-20T07:24:32.875Z,17.53
2019-05-20T07:29:27.778Z,15.57
2019-05-20T07:34:25.849Z,16.83
2019-05-20T07:39:20.771Z,12.40
2019-05-20T07:44:15.659Z,13.17
2019-05-20T07:49:10.877Z,12.87
2019-05-20T07:54:06.318Z,11.97
2019-05-20T07:59:03.473Z,13.07
2019-05-20T08:03:58.338Z,13.13
2019-05-20T08:08:53.269Z,14.30
2019-05-20T08:13:48.281Z,14.80
2019-05-20T08:18:43.333Z,13.90
2019-05-20T08:23:38.516Z,17.33
2019-05-20T08:28:33.571Z,12.33
2019-05-20T08:33:28.774Z,13.20
2019-05-20T08:38:23.827Z,13.10
2019-05-20T08:43:19.813Z,13.93
2019-05-20T08:48:15.140Z,12.90
2019-05-20T08:53:10.181Z,16.70
2019-05-20T08:58:05.575Z,12.07
2019-05-20T09:03:00.500Z,14.00
2019-05-20T09:08:02.974Z,14.03
2019-05-20T09:12:52.415Z,12.67
2019-05-20T09:17:49.566Z,12.50
2019-05-20T09:22:44.506Z,15.67
2019-05-20T09:27:39.685Z,13.17
2019-05-20T09:32:36.911Z,13.60
2019-05-20T09:37:31.719Z,13.83
2019-05-20T09:42:27.660Z,25.27
2019-05-20T09:47:24.665Z,14.60
2019-05-20T09:52:19.687Z,17.90
2019-05-20T09:57:14.719Z,17.03
2019-05-20T10:02:11.341Z,13.93
2019-05-20T10:07:09.397Z,14.47
2019-05-20T10:12:04.887Z,14.77
2019-05-20T10:16:59.826Z,13.57
2019-05-20T10:21:54.984Z,13.60
2019-05-20T10:26:50.012Z,14.80
2019-05-20T10:31:44.992Z,15.23
2019-05-20T10:36:39.974Z,13.40
2019-05-20T10:41:34.952Z,13.47
2019-05-20T10:46:29.826Z,13.78
2019-05-20T10:51:24.792Z,13.05
2019-05-20T10:56:19.742Z,14.13
2019-05-20T11:01:14.803Z,14.03
2019-05-20T11:06:09.720Z,13.32
2019-05-20T11:11:04.765Z,13.40
2019-05-20T11:16:00.125Z,13.72
2019-05-20T11:20:55.112Z,16.20
2019-05-20T11:25:50.125Z,20.70
2019-05-20T11:30:45.092Z,15.30
2019-05-20T11:35:40.053Z,17.35
2019-05-20T11:40:34.997Z,17.23
2019-05-20T11:45:29.924Z,18.50
2019-05-20T11:50:24.967Z,17.87
2019-05-20T11:55:19.899Z,19.37
2019-05-20T12:00:17.745Z,20.13
2019-05-20T12:05:13.946Z,19.13
2019-05-20T12:10:12.864Z,18.23
2019-05-20T12:15:09.500Z,21.63
2019-05-20T12:20:06.146Z,18.27
2019-05-20T12:25:01.780Z,18.90
2019-05-20T12:29:56.792Z,17.87
2019-05-20T12:34:51.689Z,17.37
2019-05-20T12:39:46.630Z,18.00
2019-05-20T12:44:42.558Z,18.60
2019-05-20T12:49:40.673Z,18.87
2019-05-20T12:54:35.590Z,19.63
2019-05-20T12:59:30.570Z,8.93
2019-05-20T13:04:25.482Z,8.10
2019-05-20T13:09:20.462Z,6.60
2019-05-20T13:14:15.401Z,6.63
2019-05-20T13:19:10.358Z,8.93
2019-05-20T13:24:05.462Z,6.83
2019-05-20T13:29:01.335Z,8.77
2019-05-20T13:33:56.272Z,9.57
2019-05-20T13:38:51.264Z,6.37
2019-05-20T13:43:47.329Z,8.50
2019-05-20T13:48:44.619Z,5.73
2019-05-20T13:53:45.693Z,6.93
2019-05-20T13:58:40.846Z,15.43
2019-05-20T14:03:35.768Z,9.13
2019-05-20T14:08:30.703Z,9.17
2019-05-20T14:13:26.163Z,13.60
2019-05-20T14:18:21.360Z,15.07
2019-05-20T14:23:16.318Z,9.83
2019-05-20T14:28:11.255Z,8.90
2019-05-20T14:33:06.233Z,7.87
2019-05-20T14:38:02.090Z,7.10
2019-05-20T14:42:56.987Z,7.93
2019-05-20T14:47:51.911Z,7.80
2019-05-20T14:52:46.772Z,8.33
2019-05-20T14:57:41.666Z,9.50
2019-05-20T15:02:36.519Z,12.33
2019-05-20T15:07:31.608Z,10.27
2019-05-20T15:12:26.536Z,11.50
2019-05-20T15:17:21.625Z,11.17
2019-05-20T15:22:16.597Z,10.50
2019-05-20T15:27:17.318Z,12.47
2019-05-20T15:32:12.185Z,12.63
2019-05-20T15:37:07.070Z,12.47
2019-05-20T15:42:05.381Z,12.13
2019-05-20T15:47:00.428Z,10.77
2019-05-20T15:52:24.416Z,10.03
2019-05-20T15:57:20.324Z,11.10
2019-05-20T16:02:15.297Z,10.00
2019-05-20T16:07:10.447Z,12.83
2019-05-20T16:12:05.818Z,10.43
2019-05-20T16:17:00.794Z,10.17
2019-05-20T16:21:56.121Z,8.33
2019-05-20T16:27:00.072Z,10.37
2019-05-20T16:31:56.932Z,8.77
2019-05-20T16:36:52.792Z,13.87
2019-05-20T16:41:51.072Z,8.83
2019-05-20T16:46:49.476Z,8.67
2019-05-20T16:51:44.423Z,8.90
2019-05-20T16:56:39.378Z,8.53
2019-05-20T17:01:46.156Z,11.23
2019-05-20T17:06:37.677Z,32.03
2019-05-20T17:11:34.583Z,41.00
2019-05-20T17:16:35.658Z,37.23
2019-05-20T17:21:30.560Z,20.93
2019-05-20T17:26:25.540Z,14.00
2019-05-20T17:31:26.879Z,11.73
2019-05-20T17:36:28.061Z,12.90
2019-05-20T17:41:23.020Z,12.53
2019-05-20T17:46:21.151Z,13.80
2019-05-20T17:51:17.301Z,13.67
2019-05-20T17:56:12.375Z,15.80
2019-05-20T18:01:15.297Z,13.53
2019-05-20T18:06:05.748Z,14.63
2019-05-20T18:11:06.578Z,6.60
2019-05-20T18:16:01.510Z,5.60
2019-05-20T18:20:56.705Z,8.30
2019-05-20T18:25:51.939Z,7.57
2019-05-20T18:30:47.813Z,9.53
2019-05-20T18:35:43.551Z,9.27
2019-05-20T18:40:38.463Z,9.97
2019-05-20T18:45:36.533Z,14.43
2019-05-20T18:50:32.456Z,12.50
2019-05-20T18:55:28.458Z,24.87
2019-05-20T19:00:25.532Z,28.10
2019-05-20T19:05:20.553Z,31.13
2019-05-20T19:10:21.440Z,28.83
2019-05-20T19:15:16.777Z,28.50
2019-05-20T19:20:11.783Z,27.80
2019-05-20T19:25:07.379Z,28.33
2019-05-20T19:30:05.733Z,29.70
2019-05-20T19:35:01.756Z,27.30
2019-05-20T19:39:56.664Z,29.47
2019-05-20T19:44:51.655Z,26.47
2019-05-20T19:49:46.504Z,30.40
2019-05-20T19:54:41.448Z,28.67
2019-05-20T19:59:36.356Z,28.77
2019-05-20T20:04:34.389Z,31.20
2019-05-20T20:09:35.177Z,26.33
2019-05-20T20:14:31.185Z,26.93
2019-05-20T20:19:27.151Z,26.73
2019-05-20T20:24:22.076Z,30.43
2019-05-20T20:29:17.048Z,35.90
2019-05-20T20:34:15.113Z,34.40
2019-05-20T20:39:13.135Z,33.53
2019-05-20T20:44:08.085Z,32.60
2019-05-20T20:49:03.058Z,31.23
2019-05-20T20:53:58.046Z,29.90
2019-05-20T20:58:53.034Z,29.73
2019-05-20T21:03:48.068Z,26.67
2019-05-20T21:08:43.056Z,27.93
2019-05-20T21:13:41.118Z,22.17
2019-05-20T21:18:36.134Z,23.90
2019-05-20T21:23:31.123Z,26.00
2019-05-20T21:28:26.276Z,19.77
2019-05-20T21:33:21.266Z,17.00
2019-05-20T21:38:22.000Z,18.17
2019-05-20T21:43:17.294Z,17.87
2019-05-20T21:48:13.191Z,25.27
2019-05-20T21:53:08.071Z,17.53
2019-05-20T21:58:08.947Z,17.23
2019-05-20T22:03:03.913Z,15.60
2019-05-20T22:07:58.961Z,13.77
2019-05-20T22:12:54.007Z,12.90
2019-05-20T22:17:48.914Z,12.40
2019-05-20T22:22:52.122Z,12.47
2019-05-20T22:27:47.037Z,13.33
2019-05-20T22:32:41.891Z,11.60
2019-05-20T22:37:37.827Z,11.27
2019-05-20T22:42:34.700Z,11.33
2019-05-20T22:47:29.660Z,10.63
2019-05-20T22:52:24.587Z,11.90
2019-05-20T22:57:19.499Z,10.80
2019-05-20T23:02:14.429Z,10.23
2019-05-20T23:07:09.391Z,10.70
2019-05-20T23:12:04.352Z,9.70
2019-05-20T23:16:59.272Z,10.33
2019-05-20T23:21:54.256Z,9.13
2019-05-20T23:26:49.224Z,8.57
2019-05-20T23:31:47.370Z,7.83
2019-05-20T23:36:43.272Z,8.50
2019-05-20T23:41:38.217Z,7.60
2019-05-20T23:46:33.191Z,7.60
2019-05-20T23:51:28.173Z,6.77
2019-05-20T23:56:23.089Z,6.13
